sensor_id;sensor_type;location;lat;lon;timestamp;temperature;humidity
75738;DHT22;64356;45.638;13.764;2024-01-30T00:00:04;19.20;43.50
75738;DHT22;64356;45.638;13.764;2024-01-30T00:02:30;19.20;43.40
75738;DHT22;64356;45.638;13.764;2024-01-30T00:04:56;19.20;43.40
75738;DHT22;64356;45.638;13.764;2024-01-30T00:07:21;19.20;43.50
75738;DHT22;64356;45.638;13.764;2024-01-30T00:09:47;19.20;43.60
75738;DHT22;64356;45.638;13.764;2024-01-30T00:12:13;19.20;43.60
75738;DHT22;64356;45.638;13.764;2024-01-30T00:14:41;19.20;43.50
75738;DHT22;64356;45.638;13.764;2024-01-30T00:17:06;19.10;43.50
75738;DHT22;64356;45.638;13.764;2024-01-30T00:19:32;19.20;43.50
75738;DHT22;64356;45.638;13.764;2024-01-30T00:21:58;19.20;43.40
75738;DHT22;64356;45.638;13.764;2024-01-30T00:24:24;19.20;43.30
75738;DHT22;64356;45.638;13.764;2024-01-30T00:26:49;19.20;43.30
75738;DHT22;64356;45.638;13.764;2024-01-30T00:29:15;19.20;43.20
75738;DHT22;64356;45.638;13.764;2024-01-30T00:31:45;19.10;43.10
75738;DHT22;64356;45.638;13.764;2024-01-30T00:34:10;19.10;43.10
75738;DHT22;64356;45.638;13.764;2024-01-30T00:36:36;19.10;43.20
75738;DHT22;64356;45.638;13.764;2024-01-30T00:39:02;19.10;43.20
75738;DHT22;64356;45.638;13.764;2024-01-30T00:41:31;19.10;43.10
75738;DHT22;64356;45.638;13.764;2024-01-30T00:43:57;19.10;43.10
75738;DHT22;64356;45.638;13.764;2024-01-30T00:46:23;19.10;43.10
75738;DHT22;64356;45.638;13.764;2024-01-30T00:48:48;19.10;43.10
75738;DHT22;64356;45.638;13.764;2024-01-30T00:51:14;19.10;43.00
75738;DHT22;64356;45.638;13.764;2024-01-30T00:53:40;19.10;43.00
75738;DHT22;64356;45.638;13.764;2024-01-30T00:56:07;19.00;42.90
75738;DHT22;64356;45.638;13.764;2024-01-30T00:58:34;19.00;42.90
75738;DHT22;64356;45.638;13.764;2024-01-30T01:01:00;19.00;42.90
75738;DHT22;64356;45.638;13.764;2024-01-30T01:03:25;19.00;42.90
75738;DHT22;64356;45.638;13.764;2024-01-30T01:05:51;19.00;43.00
75738;DHT22;64356;45.638;13.764;2024-01-30T01:08:16;19.00;43.00
75738;DHT22;64356;45.638;13.764;2024-01-30T01:10:43;19.00;43.10
75738;DHT22;64356;45.638;13.764;2024-01-30T01:13:09;19.00;43.10
75738;DHT22;64356;45.638;13.764;2024-01-30T01:15:34;19.00;43.10
75738;DHT22;64356;45.638;13.764;2024-01-30T01:18:00;19.00;43.10
75738;DHT22;64356;45.638;13.764;2024-01-30T01:20:25;19.00;43.00
75738;DHT22;64356;45.638;13.764;2024-01-30T01:22:51;19.00;43.00
75738;DHT22;64356;45.638;13.764;2024-01-30T01:25:18;19.00;43.00
75738;DHT22;64356;45.638;13.764;2024-01-30T01:27:43;19.00;43.00
75738;DHT22;64356;45.638;13.764;2024-01-30T01:30:16;19.00;43.00
75738;DHT22;64356;45.638;13.764;2024-01-30T01:32:49;19.00;43.00
75738;DHT22;64356;45.638;13.764;2024-01-30T01:35:22;19.00;43.00
75738;DHT22;64356;45.638;13.764;2024-01-30T01:37:50;19.00;43.10
75738;DHT22;64356;45.638;13.764;2024-01-30T01:40:23;19.00;43.10
75738;DHT22;64356;45.638;13.764;2024-01-30T01:42:52;18.90;43.00
75738;DHT22;64356;45.638;13.764;2024-01-30T01:45:18;18.90;43.00
75738;DHT22;64356;45.638;13.764;2024-01-30T01:47:44;19.00;43.10
75738;DHT22;64356;45.638;13.764;2024-01-30T01:50:15;18.90;43.10
75738;DHT22;64356;45.638;13.764;2024-01-30T01:52:44;18.90;43.10
75738;DHT22;64356;45.638;13.764;2024-01-30T01:55:10;18.90;43.20
75738;DHT22;64356;45.638;13.764;2024-01-30T01:57:36;18.90;43.20
75738;DHT22;64356;45.638;13.764;2024-01-30T02:00:02;18.90;43.20
75738;DHT22;64356;45.638;13.764;2024-01-30T02:02:32;18.90;43.20
75738;DHT22;64356;45.638;13.764;2024-01-30T02:05:00;18.90;43.20
75738;DHT22;64356;45.638;13.764;2024-01-30T02:07:26;18.90;43.20
75738;DHT22;64356;45.638;13.764;2024-01-30T02:09:52;18.90;43.20
75738;DHT22;64356;45.638;13.764;2024-01-30T02:12:18;18.90;43.30
75738;DHT22;64356;45.638;13.764;2024-01-30T02:14:47;18.80;43.20
75738;DHT22;64356;45.638;13.764;2024-01-30T02:17:13;18.80;43.20
75738;DHT22;64356;45.638;13.764;2024-01-30T02:19:39;18.80;43.20
75738;DHT22;64356;45.638;13.764;2024-01-30T02:22:05;18.90;43.30
75738;DHT22;64356;45.638;13.764;2024-01-30T02:24:31;18.90;43.30
75738;DHT22;64356;45.638;13.764;2024-01-30T02:26:56;18.80;43.20
75738;DHT22;64356;45.638;13.764;2024-01-30T02:29:22;18.80;43.30
75738;DHT22;64356;45.638;13.764;2024-01-30T02:31:48;18.80;43.30
75738;DHT22;64356;45.638;13.764;2024-01-30T02:34:13;18.80;43.40
75738;DHT22;64356;45.638;13.764;2024-01-30T02:36:42;18.80;43.40
75738;DHT22;64356;45.638;13.764;2024-01-30T02:39:08;18.80;43.30
75738;DHT22;64356;45.638;13.764;2024-01-30T02:41:33;18.80;43.40
75738;DHT22;64356;45.638;13.764;2024-01-30T02:43:59;18.80;43.40
75738;DHT22;64356;45.638;13.764;2024-01-30T02:46:24;18.80;43.40
75738;DHT22;64356;45.638;13.764;2024-01-30T02:48:50;18.80;43.40
75738;DHT22;64356;45.638;13.764;2024-01-30T02:51:16;18.80;43.40
75738;DHT22;64356;45.638;13.764;2024-01-30T02:53:42;18.70;43.30
75738;DHT22;64356;45.638;13.764;2024-01-30T02:56:07;18.80;43.40
75738;DHT22;64356;45.638;13.764;2024-01-30T02:58:35;18.70;43.40
75738;DHT22;64356;45.638;13.764;2024-01-30T03:01:02;18.70;43.40
75738;DHT22;64356;45.638;13.764;2024-01-30T03:03:27;18.70;43.40
75738;DHT22;64356;45.638;13.764;2024-01-30T03:05:53;18.70;43.50
75738;DHT22;64356;45.638;13.764;2024-01-30T03:08:18;18.70;43.50
75738;DHT22;64356;45.638;13.764;2024-01-30T03:10:44;18.70;43.50
75738;DHT22;64356;45.638;13.764;2024-01-30T03:13:10;18.70;43.40
75738;DHT22;64356;45.638;13.764;2024-01-30T03:15:35;18.70;43.50
75738;DHT22;64356;45.638;13.764;2024-01-30T03:18:01;18.70;43.50
75738;DHT22;64356;45.638;13.764;2024-01-30T03:20:27;18.70;43.50
75738;DHT22;64356;45.638;13.764;2024-01-30T03:22:53;18.70;43.50
75738;DHT22;64356;45.638;13.764;2024-01-30T03:25:19;18.70;44.10
75738;DHT22;64356;45.638;13.764;2024-01-30T03:27:45;18.70;43.50
75738;DHT22;64356;45.638;13.764;2024-01-30T03:30:10;18.70;43.50
75738;DHT22;64356;45.638;13.764;2024-01-30T03:32:36;18.70;43.50
75738;DHT22;64356;45.638;13.764;2024-01-30T03:35:02;18.70;43.50
75738;DHT22;64356;45.638;13.764;2024-01-30T03:37:27;18.60;43.50
75738;DHT22;64356;45.638;13.764;2024-01-30T03:39:53;18.60;43.60
75738;DHT22;64356;45.638;13.764;2024-01-30T03:42:19;18.70;43.60
75738;DHT22;64356;45.638;13.764;2024-01-30T03:44:44;18.70;43.70
75738;DHT22;64356;45.638;13.764;2024-01-30T03:47:10;18.90;43.30
75738;DHT22;64356;45.638;13.764;2024-01-30T03:49:36;19.20;43.00
75738;DHT22;64356;45.638;13.764;2024-01-30T03:52:01;19.50;42.70
75738;DHT22;64356;45.638;13.764;2024-01-30T03:54:27;19.70;42.10
75738;DHT22;64356;45.638;13.764;2024-01-30T03:56:52;19.90;41.80
75738;DHT22;64356;45.638;13.764;2024-01-30T03:59:18;20.10;41.50
75738;DHT22;64356;45.638;13.764;2024-01-30T04:01:52;20.20;41.20
75738;DHT22;64356;45.638;13.764;2024-01-30T04:04:18;20.40;41.10
75738;DHT22;64356;45.638;13.764;2024-01-30T04:06:44;20.40;41.00
75738;DHT22;64356;45.638;13.764;2024-01-30T04:09:09;20.50;40.80
75738;DHT22;64356;45.638;13.764;2024-01-30T04:11:35;20.60;40.70
75738;DHT22;64356;45.638;13.764;2024-01-30T04:14:00;20.70;40.40
75738;DHT22;64356;45.638;13.764;2024-01-30T04:16:26;20.80;40.50
75738;DHT22;64356;45.638;13.764;2024-01-30T04:18:52;20.80;40.50
75738;DHT22;64356;45.638;13.764;2024-01-30T04:21:17;20.80;40.20
75738;DHT22;64356;45.638;13.764;2024-01-30T04:23:43;20.80;40.20
75738;DHT22;64356;45.638;13.764;2024-01-30T04:26:09;20.70;40.30
75738;DHT22;64356;45.638;13.764;2024-01-30T04:28:34;20.70;40.30
75738;DHT22;64356;45.638;13.764;2024-01-30T04:31:00;20.60;40.30
75738;DHT22;64356;45.638;13.764;2024-01-30T04:33:26;20.60;40.40
75738;DHT22;64356;45.638;13.764;2024-01-30T04:35:51;20.50;40.50
75738;DHT22;64356;45.638;13.764;2024-01-30T04:38:17;20.40;40.50
75738;DHT22;64356;45.638;13.764;2024-01-30T04:40:43;20.40;40.70
75738;DHT22;64356;45.638;13.764;2024-01-30T04:43:08;20.30;40.70
75738;DHT22;64356;45.638;13.764;2024-01-30T04:45:34;20.30;40.80
75738;DHT22;64356;45.638;13.764;2024-01-30T04:48:00;20.20;40.90
75738;DHT22;64356;45.638;13.764;2024-01-30T04:50:25;20.20;40.90
75738;DHT22;64356;45.638;13.764;2024-01-30T04:52:52;20.10;40.90
75738;DHT22;64356;45.638;13.764;2024-01-30T04:55:17;20.00;41.00
75738;DHT22;64356;45.638;13.764;2024-01-30T04:57:43;20.00;41.20
75738;DHT22;64356;45.638;13.764;2024-01-30T05:00:09;19.90;41.20
75738;DHT22;64356;45.638;13.764;2024-01-30T05:02:35;19.90;41.20
75738;DHT22;64356;45.638;13.764;2024-01-30T05:05:00;19.90;41.40
75738;DHT22;64356;45.638;13.764;2024-01-30T05:07:26;19.80;41.50
75738;DHT22;64356;45.638;13.764;2024-01-30T05:09:51;19.80;41.60
75738;DHT22;64356;45.638;13.764;2024-01-30T05:12:17;20.00;41.50
75738;DHT22;64356;45.638;13.764;2024-01-30T05:14:43;20.30;40.80
75738;DHT22;64356;45.638;13.764;2024-01-30T05:17:09;20.70;40.20
75738;DHT22;64356;45.638;13.764;2024-01-30T05:19:35;21.00;39.60
75738;DHT22;64356;45.638;13.764;2024-01-30T05:22:01;21.20;39.20
75738;DHT22;64356;45.638;13.764;2024-01-30T05:24:26;21.40;38.80
75738;DHT22;64356;45.638;13.764;2024-01-30T05:26:52;21.50;38.50
75738;DHT22;64356;45.638;13.764;2024-01-30T05:29:18;21.60;38.30
75738;DHT22;64356;45.638;13.764;2024-01-30T05:31:43;21.60;38.20
75738;DHT22;64356;45.638;13.764;2024-01-30T05:34:09;21.70;38.10
75738;DHT22;64356;45.638;13.764;2024-01-30T05:36:35;21.80;37.90
75738;DHT22;64356;45.638;13.764;2024-01-30T05:39:00;21.80;38.00
75738;DHT22;64356;45.638;13.764;2024-01-30T05:41:26;21.90;37.70
75738;DHT22;64356;45.638;13.764;2024-01-30T05:43:52;22.00;37.70
75738;DHT22;64356;45.638;13.764;2024-01-30T05:46:18;22.00;37.60
75738;DHT22;64356;45.638;13.764;2024-01-30T05:48:44;22.10;37.30
75738;DHT22;64356;45.638;13.764;2024-01-30T05:51:09;22.10;37.40
75738;DHT22;64356;45.638;13.764;2024-01-30T05:53:35;22.20;37.20
75738;DHT22;64356;45.638;13.764;2024-01-30T05:56:03;22.30;36.90
75738;DHT22;64356;45.638;13.764;2024-01-30T05:58:29;22.30;37.10
75738;DHT22;64356;45.638;13.764;2024-01-30T06:00:56;22.30;36.80
75738;DHT22;64356;45.638;13.764;2024-01-30T06:03:22;22.40;36.70
75738;DHT22;64356;45.638;13.764;2024-01-30T06:05:48;22.40;37.00
75738;DHT22;64356;45.638;13.764;2024-01-30T06:08:14;22.50;37.10
75738;DHT22;64356;45.638;13.764;2024-01-30T06:10:39;22.60;36.80
75738;DHT22;64356;45.638;13.764;2024-01-30T06:13:05;22.60;36.80
75738;DHT22;64356;45.638;13.764;2024-01-30T06:15:31;22.70;36.60
75738;DHT22;64356;45.638;13.764;2024-01-30T06:17:58;22.70;36.40
75738;DHT22;64356;45.638;13.764;2024-01-30T06:20:24;22.80;35.80
75738;DHT22;64356;45.638;13.764;2024-01-30T06:22:49;22.80;35.80
75738;DHT22;64356;45.638;13.764;2024-01-30T06:25:15;22.90;35.80
75738;DHT22;64356;45.638;13.764;2024-01-30T06:27:42;22.90;35.60
75738;DHT22;64356;45.638;13.764;2024-01-30T06:30:08;22.90;35.20
75738;DHT22;64356;45.638;13.764;2024-01-30T06:32:35;23.00;35.70
75738;DHT22;64356;45.638;13.764;2024-01-30T06:35:01;23.00;35.80
75738;DHT22;64356;45.638;13.764;2024-01-30T06:37:27;23.10;35.30
75738;DHT22;64356;45.638;13.764;2024-01-30T06:39:53;23.10;35.60
75738;DHT22;64356;45.638;13.764;2024-01-30T06:42:18;23.10;35.10
75738;DHT22;64356;45.638;13.764;2024-01-30T06:44:44;23.00;35.20
75738;DHT22;64356;45.638;13.764;2024-01-30T06:47:10;23.10;34.90
75738;DHT22;64356;45.638;13.764;2024-01-30T06:49:35;23.10;35.40
75738;DHT22;64356;45.638;13.764;2024-01-30T06:52:06;23.20;37.30
75738;DHT22;64356;45.638;13.764;2024-01-30T06:54:32;23.20;37.10
75738;DHT22;64356;45.638;13.764;2024-01-30T06:56:58;23.10;33.90
75738;DHT22;64356;45.638;13.764;2024-01-30T06:59:24;22.70;31.70
75738;DHT22;64356;45.638;13.764;2024-01-30T07:01:50;22.00;32.20
75738;DHT22;64356;45.638;13.764;2024-01-30T07:04:15;21.50;35.00
75738;DHT22;64356;45.638;13.764;2024-01-30T07:06:41;21.40;35.50
75738;DHT22;64356;45.638;13.764;2024-01-30T07:09:07;21.60;35.70
75738;DHT22;64356;45.638;13.764;2024-01-30T07:11:34;22.00;36.00
75738;DHT22;64356;45.638;13.764;2024-01-30T07:13:59;22.20;35.50
75738;DHT22;64356;45.638;13.764;2024-01-30T07:16:25;22.50;36.00
75738;DHT22;64356;45.638;13.764;2024-01-30T07:18:51;22.60;36.30
75738;DHT22;64356;45.638;13.764;2024-01-30T07:21:17;22.70;36.80
75738;DHT22;64356;45.638;13.764;2024-01-30T07:23:43;22.70;36.30
75738;DHT22;64356;45.638;13.764;2024-01-30T07:26:09;22.70;36.20
75738;DHT22;64356;45.638;13.764;2024-01-30T07:28:35;22.70;36.60
75738;DHT22;64356;45.638;13.764;2024-01-30T07:31:01;22.70;37.10
75738;DHT22;64356;45.638;13.764;2024-01-30T07:33:26;22.60;37.70
75738;DHT22;64356;45.638;13.764;2024-01-30T07:35:52;22.50;37.30
75738;DHT22;64356;45.638;13.764;2024-01-30T07:38:18;22.50;36.90
75738;DHT22;64356;45.638;13.764;2024-01-30T07:40:44;22.50;37.00
75738;DHT22;64356;45.638;13.764;2024-01-30T07:43:10;22.40;37.10
75738;DHT22;64356;45.638;13.764;2024-01-30T07:45:36;22.40;37.10
75738;DHT22;64356;45.638;13.764;2024-01-30T07:48:03;22.30;36.80
75738;DHT22;64356;45.638;13.764;2024-01-30T07:50:28;22.30;36.90
75738;DHT22;64356;45.638;13.764;2024-01-30T07:52:59;22.30;37.60
75738;DHT22;64356;45.638;13.764;2024-01-30T07:55:24;22.30;37.90
75738;DHT22;64356;45.638;13.764;2024-01-30T07:57:53;22.40;38.70
75738;DHT22;64356;45.638;13.764;2024-01-30T08:00:19;22.40;39.20
75738;DHT22;64356;45.638;13.764;2024-01-30T08:02:45;22.40;39.40
75738;DHT22;64356;45.638;13.764;2024-01-30T08:05:11;22.40;39.70
75738;DHT22;64356;45.638;13.764;2024-01-30T08:07:36;22.50;39.00
75738;DHT22;64356;45.638;13.764;2024-01-30T08:10:02;22.60;38.40
75738;DHT22;64356;45.638;13.764;2024-01-30T08:12:28;22.70;38.00
75738;DHT22;64356;45.638;13.764;2024-01-30T08:14:53;22.80;37.60
75738;DHT22;64356;45.638;13.764;2024-01-30T08:17:19;22.80;37.50
75738;DHT22;64356;45.638;13.764;2024-01-30T08:19:45;22.80;37.80
75738;DHT22;64356;45.638;13.764;2024-01-30T08:22:11;22.80;37.90
75738;DHT22;64356;45.638;13.764;2024-01-30T08:24:37;22.80;37.80
75738;DHT22;64356;45.638;13.764;2024-01-30T08:27:03;22.80;38.20
75738;DHT22;64356;45.638;13.764;2024-01-30T08:29:30;22.80;38.00
75738;DHT22;64356;45.638;13.764;2024-01-30T08:31:56;22.80;38.60
75738;DHT22;64356;45.638;13.764;2024-01-30T08:34:21;22.70;38.60
75738;DHT22;64356;45.638;13.764;2024-01-30T08:36:47;22.70;38.40
75738;DHT22;64356;45.638;13.764;2024-01-30T08:39:13;22.80;38.00
75738;DHT22;64356;45.638;13.764;2024-01-30T08:41:40;22.80;38.00
75738;DHT22;64356;45.638;13.764;2024-01-30T08:44:05;22.80;38.30
75738;DHT22;64356;45.638;13.764;2024-01-30T08:46:31;22.80;38.70
75738;DHT22;64356;45.638;13.764;2024-01-30T08:48:56;22.80;38.60
75738;DHT22;64356;45.638;13.764;2024-01-30T08:51:22;22.80;38.40
75738;DHT22;64356;45.638;13.764;2024-01-30T08:53:48;22.80;38.50
75738;DHT22;64356;45.638;13.764;2024-01-30T08:56:14;22.90;38.80
75738;DHT22;64356;45.638;13.764;2024-01-30T08:58:41;23.00;38.60
75738;DHT22;64356;45.638;13.764;2024-01-30T09:01:07;23.10;39.20
75738;DHT22;64356;45.638;13.764;2024-01-30T09:03:33;23.20;39.50
75738;DHT22;64356;45.638;13.764;2024-01-30T09:05:59;23.40;39.50
75738;DHT22;64356;45.638;13.764;2024-01-30T09:08:24;23.60;39.20
75738;DHT22;64356;45.638;13.764;2024-01-30T09:10:50;23.80;38.30
75738;DHT22;64356;45.638;13.764;2024-01-30T09:13:16;23.80;38.50
75738;DHT22;64356;45.638;13.764;2024-01-30T09:15:41;23.90;37.90
75738;DHT22;64356;45.638;13.764;2024-01-30T09:18:07;24.00;38.60
75738;DHT22;64356;45.638;13.764;2024-01-30T09:20:33;24.00;38.30
75738;DHT22;64356;45.638;13.764;2024-01-30T09:22:58;24.10;38.20
75738;DHT22;64356;45.638;13.764;2024-01-30T09:25:24;24.00;38.30
75738;DHT22;64356;45.638;13.764;2024-01-30T09:27:50;24.00;38.50
75738;DHT22;64356;45.638;13.764;2024-01-30T09:30:15;23.90;38.60
75738;DHT22;64356;45.638;13.764;2024-01-30T09:32:41;23.80;38.40
75738;DHT22;64356;45.638;13.764;2024-01-30T09:35:07;23.80;38.50
75738;DHT22;64356;45.638;13.764;2024-01-30T09:37:33;23.70;38.70
75738;DHT22;64356;45.638;13.764;2024-01-30T09:39:58;23.60;39.40
75738;DHT22;64356;45.638;13.764;2024-01-30T09:44:50;23.50;38.30
75738;DHT22;64356;45.638;13.764;2024-01-30T09:47:16;23.50;38.50
75738;DHT22;64356;45.638;13.764;2024-01-30T09:49:42;23.50;38.40
75738;DHT22;64356;45.638;13.764;2024-01-30T09:52:08;23.50;39.00
75738;DHT22;64356;45.638;13.764;2024-01-30T09:54:34;23.50;39.20
75738;DHT22;64356;45.638;13.764;2024-01-30T09:57:00;23.50;38.90
75738;DHT22;64356;45.638;13.764;2024-01-30T09:59:26;23.50;39.40
75738;DHT22;64356;45.638;13.764;2024-01-30T10:01:52;23.50;39.20
75738;DHT22;64356;45.638;13.764;2024-01-30T10:04:18;23.50;39.40
75738;DHT22;64356;45.638;13.764;2024-01-30T10:06:44;23.60;39.00
75738;DHT22;64356;45.638;13.764;2024-01-30T10:09:09;23.60;39.40
75738;DHT22;64356;45.638;13.764;2024-01-30T10:11:38;23.60;39.50
75738;DHT22;64356;45.638;13.764;2024-01-30T10:14:04;23.60;40.00
75738;DHT22;64356;45.638;13.764;2024-01-30T10:16:29;23.60;39.10
75738;DHT22;64356;45.638;13.764;2024-01-30T10:18:55;23.60;39.40
75738;DHT22;64356;45.638;13.764;2024-01-30T10:21:21;23.50;38.10
75738;DHT22;64356;45.638;13.764;2024-01-30T10:23:46;23.50;38.80
75738;DHT22;64356;45.638;13.764;2024-01-30T10:26:12;23.50;38.90
75738;DHT22;64356;45.638;13.764;2024-01-30T10:28:38;23.50;38.90
75738;DHT22;64356;45.638;13.764;2024-01-30T10:31:03;23.50;39.70
75738;DHT22;64356;45.638;13.764;2024-01-30T10:33:29;23.50;39.50
75738;DHT22;64356;45.638;13.764;2024-01-30T10:36:00;23.60;38.30
75738;DHT22;64356;45.638;13.764;2024-01-30T10:38:26;23.60;40.00
75738;DHT22;64356;45.638;13.764;2024-01-30T10:40:53;23.70;39.90
75738;DHT22;64356;45.638;13.764;2024-01-30T10:43:21;23.70;38.80
75738;DHT22;64356;45.638;13.764;2024-01-30T10:45:49;23.80;38.40
75738;DHT22;64356;45.638;13.764;2024-01-30T10:48:16;23.80;37.90
75738;DHT22;64356;45.638;13.764;2024-01-30T10:50:41;23.80;37.60
75738;DHT22;64356;45.638;13.764;2024-01-30T10:53:08;23.90;37.70
75738;DHT22;64356;45.638;13.764;2024-01-30T10:55:34;24.00;39.20
75738;DHT22;64356;45.638;13.764;2024-01-30T10:58:00;24.10;39.60
75738;DHT22;64356;45.638;13.764;2024-01-30T11:00:26;24.20;40.40
75738;DHT22;64356;45.638;13.764;2024-01-30T11:02:52;24.30;40.50
75738;DHT22;64356;45.638;13.764;2024-01-30T11:05:24;24.40;40.60
75738;DHT22;64356;45.638;13.764;2024-01-30T11:07:53;24.40;39.40
75738;DHT22;64356;45.638;13.764;2024-01-30T11:10:18;24.40;39.60
75738;DHT22;64356;45.638;13.764;2024-01-30T11:12:45;24.40;38.90
75738;DHT22;64356;45.638;13.764;2024-01-30T11:15:15;24.50;40.40
75738;DHT22;64356;45.638;13.764;2024-01-30T11:20:10;24.50;38.50
75738;DHT22;64356;45.638;13.764;2024-01-30T11:22:36;24.50;37.30
75738;DHT22;64356;45.638;13.764;2024-01-30T11:25:01;24.60;37.10
75738;DHT22;64356;45.638;13.764;2024-01-30T11:27:30;24.60;36.90
75738;DHT22;64356;45.638;13.764;2024-01-30T11:30:03;24.50;36.60
75738;DHT22;64356;45.638;13.764;2024-01-30T11:32:28;24.50;37.40
75738;DHT22;64356;45.638;13.764;2024-01-30T11:34:55;24.50;37.40
75738;DHT22;64356;45.638;13.764;2024-01-30T11:37:20;24.40;37.50
75738;DHT22;64356;45.638;13.764;2024-01-30T11:39:47;24.40;37.80
75738;DHT22;64356;45.638;13.764;2024-01-30T11:42:13;24.40;37.10
75738;DHT22;64356;45.638;13.764;2024-01-30T11:44:39;24.40;37.20
75738;DHT22;64356;45.638;13.764;2024-01-30T11:47:04;24.40;37.40
75738;DHT22;64356;45.638;13.764;2024-01-30T11:49:30;24.40;37.70
75738;DHT22;64356;45.638;13.764;2024-01-30T11:51:56;24.40;38.30
75738;DHT22;64356;45.638;13.764;2024-01-30T11:54:21;24.40;37.80
75738;DHT22;64356;45.638;13.764;2024-01-30T11:56:47;24.40;38.80
75738;DHT22;64356;45.638;13.764;2024-01-30T11:59:13;24.50;38.50
75738;DHT22;64356;45.638;13.764;2024-01-30T12:01:39;24.60;39.60
75738;DHT22;64356;45.638;13.764;2024-01-30T12:04:05;24.70;39.40
75738;DHT22;64356;45.638;13.764;2024-01-30T12:06:34;24.90;37.60
75738;DHT22;64356;45.638;13.764;2024-01-30T12:09:00;25.00;37.30
75738;DHT22;64356;45.638;13.764;2024-01-30T12:11:26;25.00;37.90
75738;DHT22;64356;45.638;13.764;2024-01-30T12:13:53;25.10;37.30
75738;DHT22;64356;45.638;13.764;2024-01-30T12:16:19;25.20;38.70
75738;DHT22;64356;45.638;13.764;2024-01-30T12:18:45;25.20;37.30
75738;DHT22;64356;45.638;13.764;2024-01-30T12:21:10;25.20;37.40
75738;DHT22;64356;45.638;13.764;2024-01-30T12:23:36;25.30;36.00
75738;DHT22;64356;45.638;13.764;2024-01-30T12:26:02;25.30;34.80
75738;DHT22;64356;45.638;13.764;2024-01-30T12:28:29;25.30;34.80
75738;DHT22;64356;45.638;13.764;2024-01-30T12:31:01;25.40;35.00
75738;DHT22;64356;45.638;13.764;2024-01-30T12:33:31;25.40;35.00
75738;DHT22;64356;45.638;13.764;2024-01-30T12:35:57;25.40;34.50
75738;DHT22;64356;45.638;13.764;2024-01-30T12:38:27;25.40;34.60
75738;DHT22;64356;45.638;13.764;2024-01-30T12:40:55;25.30;33.80
75738;DHT22;64356;45.638;13.764;2024-01-30T12:43:22;25.30;34.60
75738;DHT22;64356;45.638;13.764;2024-01-30T12:45:48;25.30;34.00
75738;DHT22;64356;45.638;13.764;2024-01-30T12:48:13;25.30;34.10
75738;DHT22;64356;45.638;13.764;2024-01-30T12:50:39;25.30;33.50
75738;DHT22;64356;45.638;13.764;2024-01-30T12:53:05;25.00;30.30
75738;DHT22;64356;45.638;13.764;2024-01-30T12:55:31;24.60;32.30
75738;DHT22;64356;45.638;13.764;2024-01-30T12:57:57;24.40;35.20
75738;DHT22;64356;45.638;13.764;2024-01-30T13:00:22;24.10;33.30
75738;DHT22;64356;45.638;13.764;2024-01-30T13:02:48;23.90;35.60
75738;DHT22;64356;45.638;13.764;2024-01-30T13:05:14;23.90;37.50
75738;DHT22;64356;45.638;13.764;2024-01-30T13:07:39;24.00;38.70
75738;DHT22;64356;45.638;13.764;2024-01-30T13:10:05;24.10;38.40
75738;DHT22;64356;45.638;13.764;2024-01-30T13:12:31;24.20;40.00
75738;DHT22;64356;45.638;13.764;2024-01-30T13:15:01;24.40;40.60
75738;DHT22;64356;45.638;13.764;2024-01-30T13:17:27;24.40;40.40
75738;DHT22;64356;45.638;13.764;2024-01-30T13:19:53;24.50;42.40
75738;DHT22;64356;45.638;13.764;2024-01-30T13:22:19;24.60;41.90
75738;DHT22;64356;45.638;13.764;2024-01-30T13:24:47;24.60;42.20
75738;DHT22;64356;45.638;13.764;2024-01-30T13:27:13;24.60;41.50
75738;DHT22;64356;45.638;13.764;2024-01-30T13:29:38;24.60;41.30
75738;DHT22;64356;45.638;13.764;2024-01-30T13:32:04;24.60;41.80
75738;DHT22;64356;45.638;13.764;2024-01-30T13:34:30;24.70;41.50
75738;DHT22;64356;45.638;13.764;2024-01-30T13:36:56;24.70;41.10
75738;DHT22;64356;45.638;13.764;2024-01-30T13:39:22;24.70;41.20
75738;DHT22;64356;45.638;13.764;2024-01-30T13:41:48;24.70;41.60
75738;DHT22;64356;45.638;13.764;2024-01-30T13:44:14;24.70;42.80
75738;DHT22;64356;45.638;13.764;2024-01-30T13:46:41;24.60;42.80
75738;DHT22;64356;45.638;13.764;2024-01-30T13:49:07;24.60;43.80
75738;DHT22;64356;45.638;13.764;2024-01-30T13:51:33;24.60;41.70
75738;DHT22;64356;45.638;13.764;2024-01-30T13:53:58;24.60;44.20
75738;DHT22;64356;45.638;13.764;2024-01-30T13:56:24;24.50;44.50
75738;DHT22;64356;45.638;13.764;2024-01-30T13:58:51;24.50;45.60
75738;DHT22;64356;45.638;13.764;2024-01-30T14:01:16;24.50;43.90
75738;DHT22;64356;45.638;13.764;2024-01-30T14:03:42;24.50;43.10
75738;DHT22;64356;45.638;13.764;2024-01-30T14:06:08;24.40;43.60
75738;DHT22;64356;45.638;13.764;2024-01-30T14:08:33;24.40;43.70
75738;DHT22;64356;45.638;13.764;2024-01-30T14:10:59;24.30;43.70
75738;DHT22;64356;45.638;13.764;2024-01-30T14:13:25;24.30;44.10
75738;DHT22;64356;45.638;13.764;2024-01-30T14:15:51;24.30;43.60
75738;DHT22;64356;45.638;13.764;2024-01-30T14:18:17;24.30;38.70
75738;DHT22;64356;45.638;13.764;2024-01-30T14:20:42;24.20;38.80
75738;DHT22;64356;45.638;13.764;2024-01-30T14:23:08;24.10;39.70
75738;DHT22;64356;45.638;13.764;2024-01-30T14:25:34;24.10;42.10
75738;DHT22;64356;45.638;13.764;2024-01-30T14:27:59;24.10;42.40
75738;DHT22;64356;45.638;13.764;2024-01-30T14:30:25;24.20;42.40
75738;DHT22;64356;45.638;13.764;2024-01-30T14:32:50;24.20;40.50
75738;DHT22;64356;45.638;13.764;2024-01-30T14:35:16;24.20;40.20
75738;DHT22;64356;45.638;13.764;2024-01-30T14:37:42;24.20;42.00
75738;DHT22;64356;45.638;13.764;2024-01-30T14:40:08;24.20;41.70
75738;DHT22;64356;45.638;13.764;2024-01-30T14:42:34;24.20;42.20
75738;DHT22;64356;45.638;13.764;2024-01-30T14:45:00;24.20;42.50
75738;DHT22;64356;45.638;13.764;2024-01-30T14:47:25;24.10;42.90
75738;DHT22;64356;45.638;13.764;2024-01-30T14:49:51;24.10;42.80
75738;DHT22;64356;45.638;13.764;2024-01-30T14:52:18;24.00;42.40
75738;DHT22;64356;45.638;13.764;2024-01-30T14:54:43;23.90;42.50
75738;DHT22;64356;45.638;13.764;2024-01-30T14:57:09;23.90;42.60
75738;DHT22;64356;45.638;13.764;2024-01-30T14:59:35;23.80;42.70
75738;DHT22;64356;45.638;13.764;2024-01-30T15:02:00;23.90;42.70
75738;DHT22;64356;45.638;13.764;2024-01-30T15:04:26;23.80;42.90
75738;DHT22;64356;45.638;13.764;2024-01-30T15:06:52;23.80;40.90
75738;DHT22;64356;45.638;13.764;2024-01-30T15:09:18;23.80;41.80
75738;DHT22;64356;45.638;13.764;2024-01-30T15:11:44;23.70;42.10